Energy Champion — MJUZ7 — position and weather

sailwx.info

Track history (hours):
 
Tides and Currents Weather Stations Pressure Air Temp Water Temp Dewpoint Dewpoint Depression Visibility Wind Speed Wind Dir Waves Ship Positions

Energy Champion

Last reported at 2014-Nov-22 11:24 UTC. Time now 2014-Nov-22 16:52 UTC.
Position N 37°17' W 123°23'.

Length 228 m; draft 8 m.

Type: Tanker. MMSI: 235009420.

Date/timePositionNaut miles runAvg speedWind from/ knotsBaromVisibWave heightAir tempDewpointWater temp
2014-Nov-22 11:24N 37°17' W 123°23'1 0.3
2014-Nov-22 09:31N 37°17' W 123°22'1 0.4
2014-Nov-22 06:13N 37°17' W 123°21'0 0.6
2014-Nov-22 05:32N 37°16' W 123°22'1 0.6
2014-Nov-22 04:33N 37°16' W 123°22'0 0.5
2014-Nov-22 03:33N 37°16' W 123°23'0 0.4
2014-Nov-22 02:33N 37°16' W 123°23'3 2.8
2014-Nov-22 01:25N 37°17' W 123°27'6 7.1
2014-Nov-22 00:30N 37°20' W 123°35'3 2.4
2014-Nov-21 23:14N 37°16' W 123°35'21 5.6
2014-Nov-21 19:33N 37°00' W 123°19'1 0.6
2014-Nov-21 18:33N 37°00' W 123°18'1 1.3
2014-Nov-21 17:26N 37°01' W 123°20'1 1.1
2014-Nov-21 16:33N 37°01' W 123°21'1 1.1
2014-Nov-21 15:33N 37°01' W 123°22'1 0.9
2014-Nov-21 14:32N 37°01' W 123°24'3 1.1
2014-Nov-21 11:32N 37°03' W 123°27'1 1.1
2014-Nov-21 10:21N 37°04' W 123°28'1 1.2
2014-Nov-21 09:31N 37°05' W 123°29'2 1.1
2014-Nov-21 07:27N 37°07' W 123°31'25 2.1
2014-Nov-20 19:18N 37°28' W 123°15'1011.7
2014-Nov-20 18:28N 37°34' W 123°05'1111.8
2014-Nov-20 17:34N 37°40' W 122°53'1111.4
2014-Nov-20 16:33N 37°46' W 122°41'9 8.8
2014-Nov-20 15:33N 37°49' W 122°30'8 7.9
2014-Nov-20 14:34N 37°55' W 122°25'0 0.2
2014-Nov-20 13:32N 37°55' W 122°25'0 0.0
2014-Nov-20 12:29N 37°55' W 122°25'0 0.0
2014-Nov-20 11:32N 37°55' W 122°25'0 0.0
2014-Nov-20 10:32N 37°55' W 122°25'0 0.0
2014-Nov-20 09:32N 37°55' W 122°25'0 0.0
2014-Nov-20 08:32N 37°55' W 122°25'0 0.0
2014-Nov-20 07:20N 37°55' W 122°25'0 0.0
2014-Nov-20 06:29N 37°55' W 122°25'0 0.0
2014-Nov-20 05:05N 37°55' W 122°25'0 0.0
2014-Nov-20 04:32N 37°55' W 122°25'0 0.0
2014-Nov-20 03:32N 37°55' W 122°25'0 0.0
2014-Nov-20 02:23N 37°55' W 122°25'0 0.0
2014-Nov-20 01:32N 37°55' W 122°25'0 0.0
2014-Nov-20 00:32N 37°55' W 122°25'0 0.0
2014-Nov-19 23:32N 37°55' W 122°25'0 0.0
2014-Nov-19 22:32N 37°55' W 122°25'0 0.0
2014-Nov-19 21:32N 37°55' W 122°25'0 0.0
2014-Nov-19 20:29N 37°55' W 122°25'0 0.0
2014-Nov-19 19:32N 37°55' W 122°25'0 0.0
2014-Nov-19 18:29N 37°55' W 122°25'0 0.0
2014-Nov-19 17:32N 37°55' W 122°25'0 0.0
2014-Nov-19 16:32N 37°55' W 122°25'0 0.0
2014-Nov-19 15:29N 37°55' W 122°25'0 0.0
2014-Nov-19 14:32N 37°55' W 122°25'0 0.0
2014-Nov-19 13:32N 37°55' W 122°25'0 0.0
2014-Nov-19 12:32N 37°55' W 122°25'0 0.0
2014-Nov-19 11:32N 37°55' W 122°25'0 0.0
2014-Nov-19 10:32N 37°55' W 122°25'0 0.0
2014-Nov-19 09:32N 37°55' W 122°25'0 0.0
2014-Nov-19 08:32N 37°55' W 122°25'0 0.0
2014-Nov-19 07:32N 37°55' W 122°25'0 0.0
2014-Nov-19 06:32N 37°55' W 122°25'0 0.0
2014-Nov-19 05:32N 37°55' W 122°25'0 0.0
2014-Nov-19 04:32N 37°55' W 122°25'0 0.0
2014-Nov-19 03:32N 37°55' W 122°25'0 0.0
2014-Nov-19 02:32N 37°55' W 122°25'0 0.0
2014-Nov-19 01:32N 37°55' W 122°25'0 0.0
2014-Nov-19 00:20N 37°55' W 122°25'0 0.0
2014-Nov-18 23:32N 37°55' W 122°25'0 0.0
2014-Nov-18 22:32N 37°55' W 122°25'0 0.0
2014-Nov-18 21:32N 37°55' W 122°25'0 0.0
2014-Nov-18 20:32N 37°55' W 122°25'0 0.0
2014-Nov-18 19:32N 37°55' W 122°25'0 0.0
2014-Nov-18 18:32N 37°55' W 122°25'0 0.0
2014-Nov-18 17:32N 37°55' W 122°25'0 0.0
2014-Nov-18 16:32N 37°55' W 122°25'0 0.0
2014-Nov-18 15:32N 37°55' W 122°25'0 0.0
2014-Nov-18 14:30N 37°55' W 122°25'1 1.3
2014-Nov-18 13:34N 37°54' W 122°25'8 8.1
2014-Nov-18 12:33N 37°47' W 122°21'3 2.4
2014-Nov-18 11:29N 37°44' W 122°20'0 0.2
2014-Nov-18 10:29N 37°44' W 122°20'0 0.0
2014-Nov-18 09:29N 37°44' W 122°20'0 0.0
2014-Nov-18 08:32N 37°44' W 122°20'0 0.0
2014-Nov-18 07:32N 37°44' W 122°20'0 0.0
2014-Nov-18 06:32N 37°44' W 122°20'0 0.1
2014-Nov-18 05:32N 37°44' W 122°20'0 0.1
2014-Nov-18 04:32N 37°44' W 122°20'0 0.0
2014-Nov-18 03:32N 37°44' W 122°20'0 0.0
2014-Nov-18 02:29N 37°44' W 122°20'0 0.0
2014-Nov-18 01:32N 37°44' W 122°20'0 0.0
2014-Nov-18 00:29N 37°44' W 122°20'0 0.2
2014-Nov-17 23:32N 37°44' W 122°20'0 0.1
2014-Nov-17 22:32N 37°44' W 122°20'0 0.0
2014-Nov-17 21:32N 37°44' W 122°20'0 0.0
2014-Nov-17 20:32N 37°44' W 122°20'0 0.0
2014-Nov-17 19:29N 37°44' W 122°20'0 0.0
2014-Nov-17 18:32N 37°44' W 122°20'0 0.0
2014-Nov-17 17:32N 37°44' W 122°20'0 0.2
2014-Nov-17 16:32N 37°44' W 122°20'0 0.0
2014-Nov-17 15:32N 37°44' W 122°20'0 0.0
2014-Nov-17 14:32N 37°44' W 122°20'0 0.0
2014-Nov-17 13:32N 37°44' W 122°20'0 0.0
2014-Nov-17 12:32N 37°44' W 122°20'0 0.0
2014-Nov-17 11:32N 37°44' W 122°20'0 0.1
2014-Nov-17 10:32N 37°44' W 122°20'0 0.2
2014-Nov-17 09:32N 37°44' W 122°20'0 0.0
2014-Nov-17 08:32N 37°44' W 122°20'0 0.0
2014-Nov-17 07:32N 37°44' W 122°20'0 0.0
2014-Nov-17 06:32N 37°44' W 122°20'0 0.1
2014-Nov-17 05:32N 37°44' W 122°20'0 0.2
2014-Nov-17 04:32N 37°44' W 122°20'0 0.0
2014-Nov-17 03:32N 37°44' W 122°20'0 0.0
2014-Nov-17 02:32N 37°44' W 122°20'0 0.0
2014-Nov-17 01:32N 37°44' W 122°20'0 0.0
2014-Nov-17 00:32N 37°44' W 122°20'0 0.0
2014-Nov-16 23:32N 37°44' W 122°20'0 0.2
2014-Nov-16 22:32N 37°44' W 122°20'0 0.0
2014-Nov-16 21:32N 37°44' W 122°20'0 0.0
2014-Nov-16 20:32N 37°44' W 122°20'0 0.0
2014-Nov-16 19:32N 37°44' W 122°20'0 0.0
2014-Nov-16 18:32N 37°44' W 122°20'0 0.0
2014-Nov-16 17:32N 37°44' W 122°20'0 0.2
2014-Nov-16 16:29N 37°44' W 122°20'0 0.1
2014-Nov-16 15:32N 37°44' W 122°20'0 0.0
2014-Nov-16 14:32N 37°44' W 122°20'0 0.0
2014-Nov-16 13:32N 37°44' W 122°20'0 0.0
2014-Nov-16 12:32N 37°44' W 122°20'0 0.0
2014-Nov-16 11:32N 37°44' W 122°20'0 0.0
2014-Nov-16 10:32N 37°44' W 122°20'0 0.2
2014-Nov-16 09:32N 37°44' W 122°20'0 0.1
2014-Nov-16 08:32N 37°44' W 122°20'0 0.0
2014-Nov-16 07:32N 37°44' W 122°20'0 0.0
2014-Nov-16 06:32N 37°44' W 122°20'0 0.0
2014-Nov-16 05:29N 37°44' W 122°20'0 0.0
2014-Nov-16 04:29N 37°44' W 122°20'0 0.2
2014-Nov-16 03:32N 37°44' W 122°20'0 0.1
2014-Nov-16 02:32N 37°44' W 122°20'0 0.0
2014-Nov-16 01:32N 37°44' W 122°20'0 0.0
2014-Nov-16 00:32N 37°44' W 122°20'0 0.0
2014-Nov-15 23:29N 37°44' W 122°20'0 0.0
2014-Nov-15 22:29N 37°44' W 122°20'0 0.2
2014-Nov-15 21:32N 37°44' W 122°20'0 0.0
2014-Nov-15 20:32N 37°44' W 122°20'0 0.0
2014-Nov-15 19:32N 37°44' W 122°20'0 0.0
2014-Nov-15 18:32N 37°44' W 122°20'0 0.0
2014-Nov-15 17:32N 37°44' W 122°20'0 0.0
2014-Nov-15 16:32N 37°44' W 122°20'0 0.2
2014-Nov-15 15:32N 37°44' W 122°20'0 0.1
2014-Nov-15 14:32N 37°44' W 122°20'0 0.0
2014-Nov-15 13:32N 37°44' W 122°20'0 0.0
2014-Nov-15 12:32N 37°44' W 122°20'0 0.0
2014-Nov-15 11:32N 37°44' W 122°20'0 0.0
2014-Nov-15 10:32N 37°44' W 122°20'0 0.0
2014-Nov-15 09:32N 37°44' W 122°20'0 0.2
2014-Nov-15 08:32N 37°44' W 122°20'0 0.1
2014-Nov-15 07:32N 37°44' W 122°20'0 0.0
2014-Nov-15 06:32N 37°44' W 122°20'0 0.0
2014-Nov-15 05:32N 37°44' W 122°20'0 0.0
2014-Nov-15 04:32N 37°44' W 122°20'0 0.1
2014-Nov-15 03:32N 37°44' W 122°20'0 0.1
2014-Nov-15 02:32N 37°44' W 122°20'0 0.1
2014-Nov-15 01:32N 37°44' W 122°20'0 0.1
2014-Nov-15 00:32N 37°44' W 122°20'0 0.0
2014-Nov-14 23:32N 37°44' W 122°20'0 0.0
2014-Nov-14 22:32N 37°44' W 122°20'0 0.0
2014-Nov-14 21:32N 37°44' W 122°20'0 0.2
2014-Nov-14 20:32N 37°44' W 122°20'0 0.1
2014-Nov-14 19:32N 37°44' W 122°20'0 0.0
2014-Nov-14 18:32N 37°44' W 122°20'0 0.0
2014-Nov-14 17:32N 37°44' W 122°20'0 0.0
2014-Nov-14 16:32N 37°44' W 122°20'0 0.1
2014-Nov-14 15:32N 37°44' W 122°20'0 0.1
2014-Nov-14 14:32N 37°44' W 122°20'0 0.0
2014-Nov-14 12:32N 37°44' W 122°20'0 0.0
2014-Nov-14 11:32N 37°44' W 122°20'0 0.0
2014-Nov-14 10:32N 37°44' W 122°20'0 0.0
2014-Nov-14 09:32N 37°44' W 122°20'0 0.0
2014-Nov-14 08:32N 37°44' W 122°20'0 0.2
2014-Nov-14 07:32N 37°44' W 122°20'0 0.1
2014-Nov-14 06:32N 37°44' W 122°20'0 0.0
2014-Nov-14 05:32N 37°44' W 122°20'0 0.0
2014-Nov-14 04:32N 37°44' W 122°20'0 0.0
2014-Nov-14 03:32N 37°44' W 122°20'0 0.0
2014-Nov-14 02:32N 37°44' W 122°20'0 0.2
2014-Nov-14 01:32N 37°44' W 122°20'0 0.1
2014-Nov-14 00:32N 37°44' W 122°20'0 0.0
2014-Nov-13 23:32N 37°44' W 122°20'0 0.0
2014-Nov-13 22:32N 37°44' W 122°20'0 0.0
2014-Nov-13 21:32N 37°44' W 122°20'0 0.0
2014-Nov-13 20:32N 37°44' W 122°20'0 0.2
2014-Nov-13 19:32N 37°44' W 122°20'0 0.1
2014-Nov-13 18:32N 37°44' W 122°20'0 0.0
2014-Nov-13 17:32N 37°44' W 122°20'0 0.0
2014-Nov-13 16:32N 37°44' W 122°20'0 0.0
2014-Nov-13 15:32N 37°44' W 122°20'0 0.0
2014-Nov-13 14:32N 37°44' W 122°20'0 0.1
2014-Nov-13 13:32N 37°44' W 122°20'0 0.1
2014-Nov-13 12:32N 37°44' W 122°20'0 0.0
2014-Nov-13 11:29N 37°44' W 122°20'0 0.0
2014-Nov-13 10:32N 37°44' W 122°20'0 0.0
2014-Nov-13 09:29N 37°44' W 122°20'0 0.1
2014-Nov-13 08:32N 37°44' W 122°20'0 0.1
2014-Nov-13 07:32N 37°44' W 122°20'0 0.2
2014-Nov-13 06:32N 37°44' W 122°21'0 0.1
2014-Nov-13 05:32N 37°44' W 122°20'0 0.0
2014-Nov-13 04:32N 37°44' W 122°20'0 0.0
2014-Nov-13 03:32N 37°44' W 122°20'0 0.0
2014-Nov-13 02:32N 37°44' W 122°20'0 0.0
2014-Nov-13 01:29N 37°44' W 122°20'0 0.1
2014-Nov-13 00:32N 37°44' W 122°20'0 0.1
2014-Nov-12 23:32N 37°44' W 122°20'0 0.0
2014-Nov-12 22:32N 37°44' W 122°20'0 0.0
2014-Nov-12 21:32N 37°44' W 122°20'0 0.0
2014-Nov-12 20:29N 37°44' W 122°20'0 0.0
2014-Nov-12 19:32N 37°44' W 122°20'0 0.1
2014-Nov-12 18:32N 37°44' W 122°20'0 0.2
2014-Nov-12 17:32N 37°44' W 122°20'0 0.0
2014-Nov-12 16:32N 37°44' W 122°20'0 0.0
2014-Nov-12 15:32N 37°44' W 122°20'0 0.0
2014-Nov-12 14:29N 37°44' W 122°20'0 0.2
2014-Nov-12 13:32N 37°44' W 122°20'0 0.1
2014-Nov-12 12:32N 37°44' W 122°20'0 0.0
2014-Nov-12 11:32N 37°44' W 122°20'  
Track history (hours):
 
Tides and Currents Weather Stations Pressure Air Temp Water Temp Dewpoint Dewpoint Depression Visibility Wind Speed Wind Dir Waves Ship Positions

Energy Champion

Last reported at 2014-Nov-22 11:24 UTC. Time now 2014-Nov-22 16:52 UTC.
Position N 37°17' W 123°23'.

Length 228 m; draft 8 m.

Type: Tanker. MMSI: 235009420.

Date/timePositionNaut miles runAvg speedWind from/ knotsBaromVisibWave heightAir tempDewpointWater temp
2014-Nov-22 11:24N 37°17' W 123°23'1 0.3
2014-Nov-22 09:31N 37°17' W 123°22'1 0.4
2014-Nov-22 06:13N 37°17' W 123°21'0 0.6
2014-Nov-22 05:32N 37°16' W 123°22'1 0.6
2014-Nov-22 04:33N 37°16' W 123°22'0 0.5
2014-Nov-22 03:33N 37°16' W 123°23'0 0.4
2014-Nov-22 02:33N 37°16' W 123°23'3 2.8
2014-Nov-22 01:25N 37°17' W 123°27'6 7.1
2014-Nov-22 00:30N 37°20' W 123°35'3 2.4
2014-Nov-21 23:14N 37°16' W 123°35'21 5.6
2014-Nov-21 19:33N 37°00' W 123°19'1 0.6
2014-Nov-21 18:33N 37°00' W 123°18'1 1.3
2014-Nov-21 17:26N 37°01' W 123°20'1 1.1
2014-Nov-21 16:33N 37°01' W 123°21'1 1.1
2014-Nov-21 15:33N 37°01' W 123°22'1 0.9
2014-Nov-21 14:32N 37°01' W 123°24'3 1.1
2014-Nov-21 11:32N 37°03' W 123°27'1 1.1
2014-Nov-21 10:21N 37°04' W 123°28'1 1.2
2014-Nov-21 09:31N 37°05' W 123°29'2 1.1
2014-Nov-21 07:27N 37°07' W 123°31'25 2.1
2014-Nov-20 19:18N 37°28' W 123°15'1011.7
2014-Nov-20 18:28N 37°34' W 123°05'1111.8
2014-Nov-20 17:34N 37°40' W 122°53'1111.4
2014-Nov-20 16:33N 37°46' W 122°41'9 8.8
2014-Nov-20 15:33N 37°49' W 122°30'8 7.9
2014-Nov-20 14:34N 37°55' W 122°25'0 0.2
2014-Nov-20 13:32N 37°55' W 122°25'0 0.0
2014-Nov-20 12:29N 37°55' W 122°25'0 0.0
2014-Nov-20 11:32N 37°55' W 122°25'0 0.0
2014-Nov-20 10:32N 37°55' W 122°25'0 0.0
2014-Nov-20 09:32N 37°55' W 122°25'0 0.0
2014-Nov-20 08:32N 37°55' W 122°25'0 0.0
2014-Nov-20 07:20N 37°55' W 122°25'0 0.0
2014-Nov-20 06:29N 37°55' W 122°25'0 0.0
2014-Nov-20 05:05N 37°55' W 122°25'0 0.0
2014-Nov-20 04:32N 37°55' W 122°25'0 0.0
2014-Nov-20 03:32N 37°55' W 122°25'0 0.0
2014-Nov-20 02:23N 37°55' W 122°25'0 0.0
2014-Nov-20 01:32N 37°55' W 122°25'0 0.0
2014-Nov-20 00:32N 37°55' W 122°25'0 0.0
2014-Nov-19 23:32N 37°55' W 122°25'0 0.0
2014-Nov-19 22:32N 37°55' W 122°25'0 0.0
2014-Nov-19 21:32N 37°55' W 122°25'0 0.0
2014-Nov-19 20:29N 37°55' W 122°25'0 0.0
2014-Nov-19 19:32N 37°55' W 122°25'0 0.0
2014-Nov-19 18:29N 37°55' W 122°25'0 0.0
2014-Nov-19 17:32N 37°55' W 122°25'0 0.0
2014-Nov-19 16:32N 37°55' W 122°25'0 0.0
2014-Nov-19 15:29N 37°55' W 122°25'0 0.0
2014-Nov-19 14:32N 37°55' W 122°25'0 0.0
2014-Nov-19 13:32N 37°55' W 122°25'0 0.0
2014-Nov-19 12:32N 37°55' W 122°25'0 0.0
2014-Nov-19 11:32N 37°55' W 122°25'0 0.0
2014-Nov-19 10:32N 37°55' W 122°25'0 0.0
2014-Nov-19 09:32N 37°55' W 122°25'0 0.0
2014-Nov-19 08:32N 37°55' W 122°25'0 0.0
2014-Nov-19 07:32N 37°55' W 122°25'0 0.0
2014-Nov-19 06:32N 37°55' W 122°25'0 0.0
2014-Nov-19 05:32N 37°55' W 122°25'0 0.0
2014-Nov-19 04:32N 37°55' W 122°25'0 0.0
2014-Nov-19 03:32N 37°55' W 122°25'0 0.0
2014-Nov-19 02:32N 37°55' W 122°25'0 0.0
2014-Nov-19 01:32N 37°55' W 122°25'0 0.0
2014-Nov-19 00:20N 37°55' W 122°25'0 0.0
2014-Nov-18 23:32N 37°55' W 122°25'0 0.0
2014-Nov-18 22:32N 37°55' W 122°25'0 0.0
2014-Nov-18 21:32N 37°55' W 122°25'0 0.0
2014-Nov-18 20:32N 37°55' W 122°25'0 0.0
2014-Nov-18 19:32N 37°55' W 122°25'0 0.0
2014-Nov-18 18:32N 37°55' W 122°25'0 0.0
2014-Nov-18 17:32N 37°55' W 122°25'0 0.0
2014-Nov-18 16:32N 37°55' W 122°25'0 0.0
2014-Nov-18 15:32N 37°55' W 122°25'0 0.0
2014-Nov-18 14:30N 37°55' W 122°25'1 1.3
2014-Nov-18 13:34N 37°54' W 122°25'8 8.1
2014-Nov-18 12:33N 37°47' W 122°21'3 2.4
2014-Nov-18 11:29N 37°44' W 122°20'0 0.2
2014-Nov-18 10:29N 37°44' W 122°20'0 0.0
2014-Nov-18 09:29N 37°44' W 122°20'0 0.0
2014-Nov-18 08:32N 37°44' W 122°20'0 0.0
2014-Nov-18 07:32N 37°44' W 122°20'0 0.0
2014-Nov-18 06:32N 37°44' W 122°20'0 0.1
2014-Nov-18 05:32N 37°44' W 122°20'0 0.1
2014-Nov-18 04:32N 37°44' W 122°20'0 0.0
2014-Nov-18 03:32N 37°44' W 122°20'0 0.0
2014-Nov-18 02:29N 37°44' W 122°20'0 0.0
2014-Nov-18 01:32N 37°44' W 122°20'0 0.0
2014-Nov-18 00:29N 37°44' W 122°20'0 0.2
2014-Nov-17 23:32N 37°44' W 122°20'0 0.1
2014-Nov-17 22:32N 37°44' W 122°20'0 0.0
2014-Nov-17 21:32N 37°44' W 122°20'0 0.0
2014-Nov-17 20:32N 37°44' W 122°20'0 0.0
2014-Nov-17 19:29N 37°44' W 122°20'0 0.0
2014-Nov-17 18:32N 37°44' W 122°20'0 0.0
2014-Nov-17 17:32N 37°44' W 122°20'0 0.2
2014-Nov-17 16:32N 37°44' W 122°20'0 0.0
2014-Nov-17 15:32N 37°44' W 122°20'0 0.0
2014-Nov-17 14:32N 37°44' W 122°20'0 0.0
2014-Nov-17 13:32N 37°44' W 122°20'0 0.0
2014-Nov-17 12:32N 37°44' W 122°20'0 0.0
2014-Nov-17 11:32N 37°44' W 122°20'0 0.1
2014-Nov-17 10:32N 37°44' W 122°20'0 0.2
2014-Nov-17 09:32N 37°44' W 122°20'0 0.0
2014-Nov-17 08:32N 37°44' W 122°20'0 0.0
2014-Nov-17 07:32N 37°44' W 122°20'0 0.0
2014-Nov-17 06:32N 37°44' W 122°20'0 0.1
2014-Nov-17 05:32N 37°44' W 122°20'0 0.2
2014-Nov-17 04:32N 37°44' W 122°20'0 0.0
2014-Nov-17 03:32N 37°44' W 122°20'0 0.0
2014-Nov-17 02:32N 37°44' W 122°20'0 0.0
2014-Nov-17 01:32N 37°44' W 122°20'0 0.0
2014-Nov-17 00:32N 37°44' W 122°20'0 0.0
2014-Nov-16 23:32N 37°44' W 122°20'0 0.2
2014-Nov-16 22:32N 37°44' W 122°20'0 0.0
2014-Nov-16 21:32N 37°44' W 122°20'0 0.0
2014-Nov-16 20:32N 37°44' W 122°20'0 0.0
2014-Nov-16 19:32N 37°44' W 122°20'0 0.0
2014-Nov-16 18:32N 37°44' W 122°20'0 0.0
2014-Nov-16 17:32N 37°44' W 122°20'0 0.2
2014-Nov-16 16:29N 37°44' W 122°20'0 0.1
2014-Nov-16 15:32N 37°44' W 122°20'0 0.0
2014-Nov-16 14:32N 37°44' W 122°20'0 0.0
2014-Nov-16 13:32N 37°44' W 122°20'0 0.0
2014-Nov-16 12:32N 37°44' W 122°20'0 0.0
2014-Nov-16 11:32N 37°44' W 122°20'0 0.0
2014-Nov-16 10:32N 37°44' W 122°20'0 0.2
2014-Nov-16 09:32N 37°44' W 122°20'0 0.1
2014-Nov-16 08:32N 37°44' W 122°20'0 0.0
2014-Nov-16 07:32N 37°44' W 122°20'0 0.0
2014-Nov-16 06:32N 37°44' W 122°20'0 0.0
2014-Nov-16 05:29N 37°44' W 122°20'0 0.0
2014-Nov-16 04:29N 37°44' W 122°20'0 0.2
2014-Nov-16 03:32N 37°44' W 122°20'0 0.1
2014-Nov-16 02:32N 37°44' W 122°20'0 0.0
2014-Nov-16 01:32N 37°44' W 122°20'0 0.0
2014-Nov-16 00:32N 37°44' W 122°20'0 0.0
2014-Nov-15 23:29N 37°44' W 122°20'0 0.0
2014-Nov-15 22:29N 37°44' W 122°20'0 0.2
2014-Nov-15 21:32N 37°44' W 122°20'0 0.0
2014-Nov-15 20:32N 37°44' W 122°20'0 0.0
2014-Nov-15 19:32N 37°44' W 122°20'0 0.0
2014-Nov-15 18:32N 37°44' W 122°20'0 0.0
2014-Nov-15 17:32N 37°44' W 122°20'0 0.0
2014-Nov-15 16:32N 37°44' W 122°20'0 0.2
2014-Nov-15 15:32N 37°44' W 122°20'0 0.1
2014-Nov-15 14:32N 37°44' W 122°20'0 0.0
2014-Nov-15 13:32N 37°44' W 122°20'0 0.0
2014-Nov-15 12:32N 37°44' W 122°20'0 0.0
2014-Nov-15 11:32N 37°44' W 122°20'0 0.0
2014-Nov-15 10:32N 37°44' W 122°20'0 0.0
2014-Nov-15 09:32N 37°44' W 122°20'0 0.2
2014-Nov-15 08:32N 37°44' W 122°20'0 0.1
2014-Nov-15 07:32N 37°44' W 122°20'0 0.0
2014-Nov-15 06:32N 37°44' W 122°20'0 0.0
2014-Nov-15 05:32N 37°44' W 122°20'0 0.0
2014-Nov-15 04:32N 37°44' W 122°20'0 0.1
2014-Nov-15 03:32N 37°44' W 122°20'0 0.1
2014-Nov-15 02:32N 37°44' W 122°20'0 0.1
2014-Nov-15 01:32N 37°44' W 122°20'0 0.1
2014-Nov-15 00:32N 37°44' W 122°20'0 0.0
2014-Nov-14 23:32N 37°44' W 122°20'0 0.0
2014-Nov-14 22:32N 37°44' W 122°20'0 0.0
2014-Nov-14 21:32N 37°44' W 122°20'0 0.2
2014-Nov-14 20:32N 37°44' W 122°20'0 0.1
2014-Nov-14 19:32N 37°44' W 122°20'0 0.0
2014-Nov-14 18:32N 37°44' W 122°20'0 0.0
2014-Nov-14 17:32N 37°44' W 122°20'0 0.0
2014-Nov-14 16:32N 37°44' W 122°20'0 0.1
2014-Nov-14 15:32N 37°44' W 122°20'0 0.1
2014-Nov-14 14:32N 37°44' W 122°20'0 0.0
2014-Nov-14 12:32N 37°44' W 122°20'0 0.0
2014-Nov-14 11:32N 37°44' W 122°20'0 0.0
2014-Nov-14 10:32N 37°44' W 122°20'0 0.0
2014-Nov-14 09:32N 37°44' W 122°20'0 0.0
2014-Nov-14 08:32N 37°44' W 122°20'0 0.2
2014-Nov-14 07:32N 37°44' W 122°20'0 0.1
2014-Nov-14 06:32N 37°44' W 122°20'0 0.0
2014-Nov-14 05:32N 37°44' W 122°20'0 0.0
2014-Nov-14 04:32N 37°44' W 122°20'0 0.0
2014-Nov-14 03:32N 37°44' W 122°20'0 0.0
2014-Nov-14 02:32N 37°44' W 122°20'0 0.2
2014-Nov-14 01:32N 37°44' W 122°20'0 0.1
2014-Nov-14 00:32N 37°44' W 122°20'0 0.0
2014-Nov-13 23:32N 37°44' W 122°20'0 0.0
2014-Nov-13 22:32N 37°44' W 122°20'0 0.0
2014-Nov-13 21:32N 37°44' W 122°20'0 0.0
2014-Nov-13 20:32N 37°44' W 122°20'0 0.2
2014-Nov-13 19:32N 37°44' W 122°20'0 0.1
2014-Nov-13 18:32N 37°44' W 122°20'0 0.0
2014-Nov-13 17:32N 37°44' W 122°20'0 0.0
2014-Nov-13 16:32N 37°44' W 122°20'0 0.0
2014-Nov-13 15:32N 37°44' W 122°20'0 0.0
2014-Nov-13 14:32N 37°44' W 122°20'0 0.1
2014-Nov-13 13:32N 37°44' W 122°20'0 0.1
2014-Nov-13 12:32N 37°44' W 122°20'0 0.0
2014-Nov-13 11:29N 37°44' W 122°20'0 0.0
2014-Nov-13 10:32N 37°44' W 122°20'0 0.0
2014-Nov-13 09:29N 37°44' W 122°20'0 0.1
2014-Nov-13 08:32N 37°44' W 122°20'0 0.1
2014-Nov-13 07:32N 37°44' W 122°20'0 0.2
2014-Nov-13 06:32N 37°44' W 122°21'0 0.1
2014-Nov-13 05:32N 37°44' W 122°20'0 0.0
2014-Nov-13 04:32N 37°44' W 122°20'0 0.0
2014-Nov-13 03:32N 37°44' W 122°20'0 0.0
2014-Nov-13 02:32N 37°44' W 122°20'0 0.0
2014-Nov-13 01:29N 37°44' W 122°20'0 0.1
2014-Nov-13 00:32N 37°44' W 122°20'0 0.1
2014-Nov-12 23:32N 37°44' W 122°20'0 0.0
2014-Nov-12 22:32N 37°44' W 122°20'0 0.0
2014-Nov-12 21:32N 37°44' W 122°20'0 0.0
2014-Nov-12 20:29N 37°44' W 122°20'0 0.0
2014-Nov-12 19:32N 37°44' W 122°20'0 0.1
2014-Nov-12 18:32N 37°44' W 122°20'0 0.2
2014-Nov-12 17:32N 37°44' W 122°20'0 0.0
2014-Nov-12 16:32N 37°44' W 122°20'0 0.0
2014-Nov-12 15:32N 37°44' W 122°20'0 0.0
2014-Nov-12 14:29N 37°44' W 122°20'0 0.2
2014-Nov-12 13:32N 37°44' W 122°20'0 0.1
2014-Nov-12 12:32N 37°44' W 122°20'0 0.0
2014-Nov-12 11:32N 37°44' W 122°20'  

Dump ship's entire track history